Weather observations for the past three days for
Fort Lauderdale, Fort Lauderdale Executive Airport
Metric (Imperial)
Date Time (edt) Wind (kph) Vis. (km) Weather Sky Cond. Temperature (ºC) Relative Humidity Wind Chill (°C) Heat Index (°C) Pressure Precipitation (cm)
Air Dwpt 6 hour altimeter (cm) sea level (mb) 1 hr 3 hr 6 hr
Max. Min.
10 09:53 SE 13 16.09 Partly Cloudy SCT022 30 25.6 77% 37 76.25 1016.8
10 08:53 SE 15 16.09 Partly Cloudy SCT022 29.4 26.1 82% 36 76.23 1016.5
10 07:53 SE 7 16.09 Fair CLR 27.8 26.7 27.8 25.6 94% 34 76.17 1015.8
10 06:53 Calm 16.09 Fair CLR 26.1 25.6 97% 29 76.12 1015.2
10 05:53 Calm 16.09 Light Rain CLR 25.6 25 97% 27 76.1 1014.8
10 04:53 Calm 16.09 Fair CLR 25.6 24.4 93% 27 76.07 1014.5
10 03:53 Calm 16.09 Light Rain CLR 26.1 24.4 90% 28 76.07 1014.4
10 02:53 Calm 16.09 Light Rain CLR 27.2 24.4 85% 31 76.07 1014.6
10 01:53 Calm 16.09 Light Rain BKN070 27.8 23.9 29.4 27.8 79% 32 76.12 1014.9
10 00:53 S 6 16.09 Light Rain BKN070 27.8 23.3 77% 31 76.15 1015.4
09 23:53 S 9 16.09 Partly Cloudy FEW065 SCT095 28.3 23.3 74% 32 76.15 1015.4
09 22:53 S 7 16.09 Overcast OVC055 28.3 23.9 77% 32 76.12 1015.1
09 21:53 S 11 16.09 Overcast SCT055 OVC090 28.9 23.3 72% 33 76.07 1014.4
09 20:53 S 11 16.09 Fair CLR 28.9 22.8 70% 32 76.02 1013.6
09 19:53 SE 13 16.09 Partly Cloudy SCT040 29.4 23.9 33.9 29.4 72% 34 75.95 1012.6
09 18:53 SE 17 16.09 Fair CLR 30 24.4 72% 36 75.9 1012.1
09 17:53 SE 22 16.09 Fair CLR 31.7 24.4 65% 38 75.9 1011.9
09 16:53 SE 20 G 37 16.09 Fair CLR 32.8 23.3 57% 38 75.9 1012.0
09 15:53 SE 28 16.09 Fair CLR 32.8 24.4 61% 39 75.92 1012.4
09 14:53 SE 22 16.09 Fair CLR 33.3 24.4 60% 40 75.95 1012.7
09 13:53 SE 24 G 35 16.09 A Few Clouds FEW040 FEW048 32.8 25 33.3 25.6 64% 40 76 1013.5
09 12:53 SE 22 G 33 16.09 A Few Clouds FEW038 32.8 25.6 66% 41 76.05 1013.9
09 11:53 Vrbl 9 G 30 16.09 Fair CLR 31.7 25 68% 39 76.1 1014.6
09 10:53 SE 20 16.09 A Few Clouds FEW030 31.1 24.4 68% 37 76.07 1014.5
09 09:53 S 13 16.09 Fair CLR 30 25 75% 36 76.07 1014.4
09 08:53 S 6 16.09 Fair CLR 27.8 26.1 90% 33 76.05 1014.2
09 07:53 W 6 16.09 Fair CLR 25.6 25.6 26.1 24.4 100% 27 76.07 1014.3
09 06:53 NW 6 12.87 Partly Cloudy SCT021 24.4 24.4 100% 24 76.05 1014.0
09 05:53 NW 7 12.87 Partly Cloudy SCT024 24 0 0% 76.02 1013.7
09 04:53 NW 9 16.09 Fair CLR 25 25 100% 25 76 1013.4
09 03:53 SW 7 16.09 Fair CLR 25.6 25.6 100% 27 76 1013.3
09 02:53 S 7 16.09 Fair CLR 26.1 26.1 100% 29 76.02 1013.6
09 01:53 SE 9 16.09 Fair CLR 26.1 26.1 27.2 26.1 100% 29 76.02 1013.9
09 00:53 SE 11 16.09 Fair CLR 26.7 26.7 100% 31 76.07 1014.4
08 23:53 SE 9 16.09 A Few Clouds FEW012 26.7 26.7 100% 31 76.1 1014.8
08 22:53 E 13 16.09 Fair CLR 26.7 26.1 97% 30 76.12 1014.9
08 21:53 E 15 16.09 Fair CLR 26.7 26.1 97% 30 76.07 1014.4
08 20:53 E 15 16.09 Fair CLR 27.2 25.6 91% 31 76.02 1013.7
08 19:53 E 17 16.09 Fair CLR 27.2 25.6 32.8 27.2 91% 31 75.97 1013.0
08 18:53 E 20 16.09 Fair CLR 28.9 23.9 74% 33 75.92 1012.5
08 17:53 NE 17 16.09 Fair CLR 30 24.4 72% 36 75.95 1012.7
08 16:53 E 24 G 39 16.09 Fair CLR 30.6 23.9 67% 36 75.95 1012.7
08 15:53 NE 19 16.09 Fair CLR 31.7 23.3 61% 37 76 1013.5
08 14:53 NE 17 G 31 16.09 Fair CLR 31.7 21.7 55% 35 76.05 1014.0
08 13:53 NE 19 16.09 Fair CLR 31.7 21.7 32.8 23.9 55% 35 76.07 1014.5
08 12:53 E 15 16.09 Fair CLR 32.2 22.2 56% 36 76.15 1015.3
08 11:53 Calm 16.09 Fair CLR 31.1 20 52% 33 76.17 1015.8
08 10:53 Vrbl 6 16.09 Fair CLR 30 22.2 63% 33 76.2 1016.2
08 09:53 N 9 16.09 Fair CLR 28.3 22.8 72% 32 76.2 1016.1
08 08:53 NW 7 16.09 Fair CLR 26.7 22.2 76% 29 76.17 1015.8
08 07:53 NW 11 16.09 Fair CLR 23.9 22.2 26.7 22.8 90% 23 76.15 1015.4
08 06:53 NW 6 16.09 Fair CLR 22.8 22.2 96% 76.07 1014.6
08 05:53 Calm 16.09 Fair CLR 22.8 22.2 96% 76.05 1013.9
08 04:53 NW 7 16.09 Fair CLR 23.9 22.2 90% 23 76.02 1013.9
08 03:53 NW 6 16.09 Fair CLR 24.4 22.8 91% 24 76.02 1013.6
08 02:53 Calm 16.09 Fair CLR 25.6 24.4 93% 27 76.02 1013.9
08 01:53 S 6 16.09 Fair CLR 26.7 24.4 28.3 26.7 87% 30 76.07 1014.3
08 00:53 S 11 16.09 Fair CLR 26.7 24.4 87% 30 76.1 1014.6
07 23:53 SE 11 16.09 Fair CLR 27.2 23.9 82% 30 76.1 1014.8
07 22:53 SE 6 16.09 Fair CLR 27.8 22.8 74% 31 76.12 1015.0
07 21:53 SE 9 16.09 Fair CLR 27.8 22.8 74% 31 76.1 1014.6
07 20:53 SE 13 16.09 Fair CLR 27.8 23.3 77% 31 76.07 1014.4
07 19:53 SE 13 16.09 Fair CLR 28.3 20.6 32.8 28.3 63% 30 76.05 1014.1
07 18:53 SE 19 16.09 Fair CLR 29.4 20 57% 31 76.02 1013.8
07 17:53 SE 17 16.09 Fair CLR 31.1 20 52% 33 76.02 1013.7
07 16:53 SE 20 16.09 Fair CLR 31.7 20.6 52% 34 76.02 1013.6
07 15:53 SE 19 16.09 Fair CLR 32.2 21.1 52% 35 76.05 1014.0
07 14:53 SE 20 16.09 Fair CLR 32.2 22.2 56% 36 76.07 1014.6
07 13:53 SE 15 16.09 A Few Clouds FEW050 32.8 22.8 32.8 25 56% 38 76.15 1015.4
07 12:53 Vrbl 6 16.09 Fair CLR 31.7 22.2 57% 36 76.2 1016.0
07 11:53 Calm 16.09 Fair CLR 31.1 21.7 57% 34 76.25 1016.6
07 10:53 Vrbl 6 16.09 Fair CLR 30 23.3 67% 34 76.28 1017.0
Date Time (edt) Wind (kph) Vis. (km) Weather Sky Cond. Air Dwpt Max. Min. Relative Humidity Wind Chill (°C) Heat Index (°C) altimeter (cm) sea level (mb) 1 hr 3 hr 6 hr
6 hour
Temperature (ºC) Pressure Precipitation (cm)